sensor_id;sensor_type;location;lat;lon;timestamp;temperature;humidity
46890;DHT22;32625;51.080;16.970;2023-09-19T00:00:44;19.30;99.90
46890;DHT22;32625;51.080;16.970;2023-09-19T00:03:14;19.30;99.90
46890;DHT22;32625;51.080;16.970;2023-09-19T00:05:42;19.20;99.90
46890;DHT22;32625;51.080;16.970;2023-09-19T00:08:13;19.20;99.90
46890;DHT22;32625;51.080;16.970;2023-09-19T00:10:40;19.10;99.90
46890;DHT22;32625;51.080;16.970;2023-09-19T00:13:09;19.10;99.90
46890;DHT22;32625;51.080;16.970;2023-09-19T00:15:47;19.10;99.90
46890;DHT22;32625;51.080;16.970;2023-09-19T00:18:19;19.10;99.90
46890;DHT22;32625;51.080;16.970;2023-09-19T00:20:48;19.10;99.90
46890;DHT22;32625;51.080;16.970;2023-09-19T00:23:17;18.80;99.90
46890;DHT22;32625;51.080;16.970;2023-09-19T00:25:44;19.10;99.90
46890;DHT22;32625;51.080;16.970;2023-09-19T00:28:12;19.10;99.90
46890;DHT22;32625;51.080;16.970;2023-09-19T00:30:42;19.10;99.90
46890;DHT22;32625;51.080;16.970;2023-09-19T00:33:11;19.10;99.90
46890;DHT22;32625;51.080;16.970;2023-09-19T00:35:50;19.10;99.90
46890;DHT22;32625;51.080;16.970;2023-09-19T00:38:18;19.10;99.90
46890;DHT22;32625;51.080;16.970;2023-09-19T00:40:51;19.10;99.90
46890;DHT22;32625;51.080;16.970;2023-09-19T00:43:18;19.10;99.90
46890;DHT22;32625;51.080;16.970;2023-09-19T00:45:48;19.10;99.90
46890;DHT22;32625;51.080;16.970;2023-09-19T00:48:16;19.10;99.90
46890;DHT22;32625;51.080;16.970;2023-09-19T00:50:46;19.10;99.90
46890;DHT22;32625;51.080;16.970;2023-09-19T00:53:19;19.10;99.90
46890;DHT22;32625;51.080;16.970;2023-09-19T00:55:48;19.10;99.90
46890;DHT22;32625;51.080;16.970;2023-09-19T00:58:17;19.10;99.90
46890;DHT22;32625;51.080;16.970;2023-09-19T01:00:47;19.10;99.90
46890;DHT22;32625;51.080;16.970;2023-09-19T01:03:14;19.10;99.90
46890;DHT22;32625;51.080;16.970;2023-09-19T01:05:42;19.00;99.90
46890;DHT22;32625;51.080;16.970;2023-09-19T01:08:09;19.00;99.90
46890;DHT22;32625;51.080;16.970;2023-09-19T01:10:46;19.10;99.90
46890;DHT22;32625;51.080;16.970;2023-09-19T01:19:07;19.00;99.90
46890;DHT22;32625;51.080;16.970;2023-09-19T01:21:48;18.90;99.90
46890;DHT22;32625;51.080;16.970;2023-09-19T01:27:16;18.90;99.90
46890;DHT22;32625;51.080;16.970;2023-09-19T01:29:46;18.90;99.90
46890;DHT22;32625;51.080;16.970;2023-09-19T01:32:19;18.80;99.90
46890;DHT22;32625;51.080;16.970;2023-09-19T01:34:56;18.80;99.90
46890;DHT22;32625;51.080;16.970;2023-09-19T01:37:30;18.80;99.90
46890;DHT22;32625;51.080;16.970;2023-09-19T01:40:09;18.80;99.90
46890;DHT22;32625;51.080;16.970;2023-09-19T01:42:59;18.80;99.90
46890;DHT22;32625;51.080;16.970;2023-09-19T01:51:08;18.70;99.90
46890;DHT22;32625;51.080;16.970;2023-09-19T01:54:26;18.70;99.90
46890;DHT22;32625;51.080;16.970;2023-09-19T01:59:10;18.70;99.90
46890;DHT22;32625;51.080;16.970;2023-09-19T02:01:39;18.70;99.90
46890;DHT22;32625;51.080;16.970;2023-09-19T02:04:07;18.70;99.90
46890;DHT22;32625;51.080;16.970;2023-09-19T02:06:34;18.70;99.90
46890;DHT22;32625;51.080;16.970;2023-09-19T02:09:01;18.60;99.90
46890;DHT22;32625;51.080;16.970;2023-09-19T02:11:30;18.60;99.90
46890;DHT22;32625;51.080;16.970;2023-09-19T02:13:57;18.60;99.90
46890;DHT22;32625;51.080;16.970;2023-09-19T02:16:26;18.60;99.90
46890;DHT22;32625;51.080;16.970;2023-09-19T02:18:53;18.60;99.90
46890;DHT22;32625;51.080;16.970;2023-09-19T02:21:20;18.60;99.90
46890;DHT22;32625;51.080;16.970;2023-09-19T02:23:48;18.60;99.90
46890;DHT22;32625;51.080;16.970;2023-09-19T02:26:15;18.50;99.90
46890;DHT22;32625;51.080;16.970;2023-09-19T02:28:43;18.50;99.90
46890;DHT22;32625;51.080;16.970;2023-09-19T02:31:09;18.50;99.90
46890;DHT22;32625;51.080;16.970;2023-09-19T02:33:37;18.50;99.90
46890;DHT22;32625;51.080;16.970;2023-09-19T02:36:05;18.50;99.90
46890;DHT22;32625;51.080;16.970;2023-09-19T02:38:32;18.40;99.90
46890;DHT22;32625;51.080;16.970;2023-09-19T02:41:00;18.40;99.90
46890;DHT22;32625;51.080;16.970;2023-09-19T02:43:27;18.40;99.90
46890;DHT22;32625;51.080;16.970;2023-09-19T02:45:55;18.40;99.90
46890;DHT22;32625;51.080;16.970;2023-09-19T02:48:23;18.40;99.90
46890;DHT22;32625;51.080;16.970;2023-09-19T02:50:52;18.40;99.90
46890;DHT22;32625;51.080;16.970;2023-09-19T02:53:19;18.40;99.90
46890;DHT22;32625;51.080;16.970;2023-09-19T02:55:49;18.40;99.90
46890;DHT22;32625;51.080;16.970;2023-09-19T02:58:17;18.40;99.90
46890;DHT22;32625;51.080;16.970;2023-09-19T03:00:45;18.40;99.90
46890;DHT22;32625;51.080;16.970;2023-09-19T03:03:17;18.40;99.90
46890;DHT22;32625;51.080;16.970;2023-09-19T03:05:44;18.30;99.90
46890;DHT22;32625;51.080;16.970;2023-09-19T03:08:16;18.30;99.90
46890;DHT22;32625;51.080;16.970;2023-09-19T03:10:46;18.30;99.90
46890;DHT22;32625;51.080;16.970;2023-09-19T03:13:15;18.30;99.90
46890;DHT22;32625;51.080;16.970;2023-09-19T03:15:42;18.30;99.90
46890;DHT22;32625;51.080;16.970;2023-09-19T03:18:21;18.30;99.90
46890;DHT22;32625;51.080;16.970;2023-09-19T03:20:54;18.20;99.90
46890;DHT22;32625;51.080;16.970;2023-09-19T03:23:28;18.20;99.90
46890;DHT22;32625;51.080;16.970;2023-09-19T03:25:55;18.40;99.90
46890;DHT22;32625;51.080;16.970;2023-09-19T03:28:23;18.20;99.90
46890;DHT22;32625;51.080;16.970;2023-09-19T03:30:58;18.20;99.90
46890;DHT22;32625;51.080;16.970;2023-09-19T03:33:27;18.20;99.90
46890;DHT22;32625;51.080;16.970;2023-09-19T03:35:54;18.20;99.90
46890;DHT22;32625;51.080;16.970;2023-09-19T03:38:22;18.20;99.90
46890;DHT22;32625;51.080;16.970;2023-09-19T03:40:49;18.20;99.90
46890;DHT22;32625;51.080;16.970;2023-09-19T03:43:16;18.20;99.90
46890;DHT22;32625;51.080;16.970;2023-09-19T03:45:44;18.20;99.90
46890;DHT22;32625;51.080;16.970;2023-09-19T03:48:12;18.20;99.90
46890;DHT22;32625;51.080;16.970;2023-09-19T03:50:39;18.20;99.90
46890;DHT22;32625;51.080;16.970;2023-09-19T03:53:06;18.20;99.90
46890;DHT22;32625;51.080;16.970;2023-09-19T03:55:34;18.20;99.90
46890;DHT22;32625;51.080;16.970;2023-09-19T03:58:05;18.10;99.90
46890;DHT22;32625;51.080;16.970;2023-09-19T04:00:32;18.10;99.90
46890;DHT22;32625;51.080;16.970;2023-09-19T04:03:05;18.10;99.90
46890;DHT22;32625;51.080;16.970;2023-09-19T04:05:33;18.10;99.90
46890;DHT22;32625;51.080;16.970;2023-09-19T04:08:00;18.10;99.90
46890;DHT22;32625;51.080;16.970;2023-09-19T04:10:27;18.10;99.90
46890;DHT22;32625;51.080;16.970;2023-09-19T04:12:55;18.00;99.90
46890;DHT22;32625;51.080;16.970;2023-09-19T04:15:23;18.10;99.90
46890;DHT22;32625;51.080;16.970;2023-09-19T04:17:53;18.10;99.90
46890;DHT22;32625;51.080;16.970;2023-09-19T04:20:21;18.10;99.90
46890;DHT22;32625;51.080;16.970;2023-09-19T04:22:50;18.00;99.90
46890;DHT22;32625;51.080;16.970;2023-09-19T04:25:17;18.00;99.90
46890;DHT22;32625;51.080;16.970;2023-09-19T04:27:45;18.10;99.90
46890;DHT22;32625;51.080;16.970;2023-09-19T04:30:13;18.00;99.90
46890;DHT22;32625;51.080;16.970;2023-09-19T04:32:41;18.00;99.90
46890;DHT22;32625;51.080;16.970;2023-09-19T04:35:09;18.00;99.90
46890;DHT22;32625;51.080;16.970;2023-09-19T04:37:40;18.00;99.90
46890;DHT22;32625;51.080;16.970;2023-09-19T04:40:09;18.00;99.90
46890;DHT22;32625;51.080;16.970;2023-09-19T04:42:41;18.00;99.90
46890;DHT22;32625;51.080;16.970;2023-09-19T04:45:09;18.00;99.90
46890;DHT22;32625;51.080;16.970;2023-09-19T04:47:37;18.00;99.90
46890;DHT22;32625;51.080;16.970;2023-09-19T04:50:08;17.90;99.90
46890;DHT22;32625;51.080;16.970;2023-09-19T04:52:40;17.90;99.90
46890;DHT22;32625;51.080;16.970;2023-09-19T04:55:12;17.90;99.90
46890;DHT22;32625;51.080;16.970;2023-09-19T04:57:44;17.90;99.90
46890;DHT22;32625;51.080;16.970;2023-09-19T05:00:13;17.90;99.90
46890;DHT22;32625;51.080;16.970;2023-09-19T05:02:43;17.90;99.90
46890;DHT22;32625;51.080;16.970;2023-09-19T05:05:10;17.90;99.90
46890;DHT22;32625;51.080;16.970;2023-09-19T05:07:41;17.90;99.90
46890;DHT22;32625;51.080;16.970;2023-09-19T05:10:09;17.90;99.90
46890;DHT22;32625;51.080;16.970;2023-09-19T05:12:37;17.90;99.90
46890;DHT22;32625;51.080;16.970;2023-09-19T05:15:07;17.90;99.90
46890;DHT22;32625;51.080;16.970;2023-09-19T05:17:35;17.90;99.90
46890;DHT22;32625;51.080;16.970;2023-09-19T05:20:03;17.90;99.90
46890;DHT22;32625;51.080;16.970;2023-09-19T05:22:33;17.90;99.90
46890;DHT22;32625;51.080;16.970;2023-09-19T05:25:01;17.90;99.90
46890;DHT22;32625;51.080;16.970;2023-09-19T05:27:31;17.90;99.90
46890;DHT22;32625;51.080;16.970;2023-09-19T05:29:58;17.90;99.90
46890;DHT22;32625;51.080;16.970;2023-09-19T05:32:25;17.90;99.90
46890;DHT22;32625;51.080;16.970;2023-09-19T05:34:52;17.90;99.90
46890;DHT22;32625;51.080;16.970;2023-09-19T05:37:23;17.90;99.90
46890;DHT22;32625;51.080;16.970;2023-09-19T05:39:53;17.90;99.90
46890;DHT22;32625;51.080;16.970;2023-09-19T05:42:24;17.90;99.90
46890;DHT22;32625;51.080;16.970;2023-09-19T05:44:52;17.90;99.90
46890;DHT22;32625;51.080;16.970;2023-09-19T05:47:18;17.90;99.90
46890;DHT22;32625;51.080;16.970;2023-09-19T05:49:45;17.90;99.90
46890;DHT22;32625;51.080;16.970;2023-09-19T05:52:14;17.90;99.90
46890;DHT22;32625;51.080;16.970;2023-09-19T05:54:41;17.90;99.90
46890;DHT22;32625;51.080;16.970;2023-09-19T05:57:09;17.90;99.90
46890;DHT22;32625;51.080;16.970;2023-09-19T05:59:39;18.00;99.90
46890;DHT22;32625;51.080;16.970;2023-09-19T06:02:06;18.00;99.90
46890;DHT22;32625;51.080;16.970;2023-09-19T06:04:33;18.00;99.90
46890;DHT22;32625;51.080;16.970;2023-09-19T06:07:01;18.00;99.90
46890;DHT22;32625;51.080;16.970;2023-09-19T06:09:28;18.10;99.90
46890;DHT22;32625;51.080;16.970;2023-09-19T06:11:55;18.10;99.90
46890;DHT22;32625;51.080;16.970;2023-09-19T06:14:24;18.10;99.90
46890;DHT22;32625;51.080;16.970;2023-09-19T06:16:51;18.10;99.90
46890;DHT22;32625;51.080;16.970;2023-09-19T06:19:21;18.10;99.90
46890;DHT22;32625;51.080;16.970;2023-09-19T06:21:49;18.10;99.90
46890;DHT22;32625;51.080;16.970;2023-09-19T06:24:16;18.20;99.90
46890;DHT22;32625;51.080;16.970;2023-09-19T06:26:43;18.20;99.90
46890;DHT22;32625;51.080;16.970;2023-09-19T06:29:11;18.20;99.90
46890;DHT22;32625;51.080;16.970;2023-09-19T06:31:39;18.20;99.90
46890;DHT22;32625;51.080;16.970;2023-09-19T06:34:06;18.20;99.90
46890;DHT22;32625;51.080;16.970;2023-09-19T06:36:33;18.20;99.90
46890;DHT22;32625;51.080;16.970;2023-09-19T06:39:00;18.10;99.90
46890;DHT22;32625;51.080;16.970;2023-09-19T06:41:27;18.20;99.90
46890;DHT22;32625;51.080;16.970;2023-09-19T06:43:54;18.10;99.90
46890;DHT22;32625;51.080;16.970;2023-09-19T06:46:21;18.10;99.90
46890;DHT22;32625;51.080;16.970;2023-09-19T06:48:48;18.20;99.90
46890;DHT22;32625;51.080;16.970;2023-09-19T06:51:16;18.20;99.90
46890;DHT22;32625;51.080;16.970;2023-09-19T06:53:43;18.20;99.90
46890;DHT22;32625;51.080;16.970;2023-09-19T06:56:10;18.20;99.90
46890;DHT22;32625;51.080;16.970;2023-09-19T06:58:37;18.20;99.90
46890;DHT22;32625;51.080;16.970;2023-09-19T07:01:05;18.20;99.90
46890;DHT22;32625;51.080;16.970;2023-09-19T07:03:32;18.30;99.90
46890;DHT22;32625;51.080;16.970;2023-09-19T07:06:00;18.30;99.90
46890;DHT22;32625;51.080;16.970;2023-09-19T07:08:27;18.40;99.90
46890;DHT22;32625;51.080;16.970;2023-09-19T07:10:56;18.40;99.90
46890;DHT22;32625;51.080;16.970;2023-09-19T07:13:23;18.40;99.90
46890;DHT22;32625;51.080;16.970;2023-09-19T07:15:51;18.40;99.90
46890;DHT22;32625;51.080;16.970;2023-09-19T07:18:18;18.40;99.90
46890;DHT22;32625;51.080;16.970;2023-09-19T07:20:47;18.50;99.90
46890;DHT22;32625;51.080;16.970;2023-09-19T07:23:21;18.60;99.90
46890;DHT22;32625;51.080;16.970;2023-09-19T07:25:49;18.60;99.90
46890;DHT22;32625;51.080;16.970;2023-09-19T07:28:17;18.70;99.90
46890;DHT22;32625;51.080;16.970;2023-09-19T07:30:44;18.80;99.90
46890;DHT22;32625;51.080;16.970;2023-09-19T07:33:11;18.80;99.90
46890;DHT22;32625;51.080;16.970;2023-09-19T07:35:38;18.90;99.90
46890;DHT22;32625;51.080;16.970;2023-09-19T07:38:07;18.90;99.90
46890;DHT22;32625;51.080;16.970;2023-09-19T07:40:34;19.00;99.90
46890;DHT22;32625;51.080;16.970;2023-09-19T07:43:01;19.10;99.90
46890;DHT22;32625;51.080;16.970;2023-09-19T07:45:28;19.10;99.90
46890;DHT22;32625;51.080;16.970;2023-09-19T07:47:57;19.10;99.90
46890;DHT22;32625;51.080;16.970;2023-09-19T07:50:24;19.00;99.90
46890;DHT22;32625;51.080;16.970;2023-09-19T07:52:53;19.10;99.90
46890;DHT22;32625;51.080;16.970;2023-09-19T07:55:20;19.10;99.90
46890;DHT22;32625;51.080;16.970;2023-09-19T07:57:51;19.10;99.90
46890;DHT22;32625;51.080;16.970;2023-09-19T08:00:18;19.10;99.90
46890;DHT22;32625;51.080;16.970;2023-09-19T08:02:45;19.10;99.90
46890;DHT22;32625;51.080;16.970;2023-09-19T08:05:16;19.10;99.90
46890;DHT22;32625;51.080;16.970;2023-09-19T08:07:45;19.10;99.90
46890;DHT22;32625;51.080;16.970;2023-09-19T08:10:16;19.10;99.90
46890;DHT22;32625;51.080;16.970;2023-09-19T08:12:46;19.10;99.90
46890;DHT22;32625;51.080;16.970;2023-09-19T08:15:15;19.20;99.90
46890;DHT22;32625;51.080;16.970;2023-09-19T08:17:42;19.20;99.90
46890;DHT22;32625;51.080;16.970;2023-09-19T08:20:10;19.20;99.90
46890;DHT22;32625;51.080;16.970;2023-09-19T08:22:51;19.20;99.90
46890;DHT22;32625;51.080;16.970;2023-09-19T08:25:22;19.30;99.90
46890;DHT22;32625;51.080;16.970;2023-09-19T08:27:50;19.30;99.90
46890;DHT22;32625;51.080;16.970;2023-09-19T08:30:19;19.30;99.90
46890;DHT22;32625;51.080;16.970;2023-09-19T08:32:51;19.30;99.90
46890;DHT22;32625;51.080;16.970;2023-09-19T08:35:18;19.30;99.90
46890;DHT22;32625;51.080;16.970;2023-09-19T08:37:46;19.30;99.90
46890;DHT22;32625;51.080;16.970;2023-09-19T08:40:13;19.30;99.90
46890;DHT22;32625;51.080;16.970;2023-09-19T08:42:54;19.40;99.90
46890;DHT22;32625;51.080;16.970;2023-09-19T08:45:22;19.40;99.90
46890;DHT22;32625;51.080;16.970;2023-09-19T08:48:00;19.40;99.90
46890;DHT22;32625;51.080;16.970;2023-09-19T08:50:33;19.40;99.90
46890;DHT22;32625;51.080;16.970;2023-09-19T08:53:10;19.40;99.90
46890;DHT22;32625;51.080;16.970;2023-09-19T08:55:40;19.30;99.90
46890;DHT22;32625;51.080;16.970;2023-09-19T08:58:10;19.30;99.90
46890;DHT22;32625;51.080;16.970;2023-09-19T09:00:40;19.30;99.90
46890;DHT22;32625;51.080;16.970;2023-09-19T09:03:12;19.30;99.90
46890;DHT22;32625;51.080;16.970;2023-09-19T09:05:41;19.30;99.90
46890;DHT22;32625;51.080;16.970;2023-09-19T09:08:10;19.30;99.90
46890;DHT22;32625;51.080;16.970;2023-09-19T09:10:38;19.30;99.90
46890;DHT22;32625;51.080;16.970;2023-09-19T09:13:07;19.30;99.90
46890;DHT22;32625;51.080;16.970;2023-09-19T09:15:36;19.30;99.90
46890;DHT22;32625;51.080;16.970;2023-09-19T09:18:04;19.30;99.90
46890;DHT22;32625;51.080;16.970;2023-09-19T09:20:31;19.30;99.90
46890;DHT22;32625;51.080;16.970;2023-09-19T09:22:59;19.40;99.90
46890;DHT22;32625;51.080;16.970;2023-09-19T09:25:46;19.40;99.90
46890;DHT22;32625;51.080;16.970;2023-09-19T09:28:19;19.50;99.90
46890;DHT22;32625;51.080;16.970;2023-09-19T09:30:46;19.60;99.90
46890;DHT22;32625;51.080;16.970;2023-09-19T09:33:14;19.60;99.90
46890;DHT22;32625;51.080;16.970;2023-09-19T09:35:49;19.70;99.90
46890;DHT22;32625;51.080;16.970;2023-09-19T09:38:20;19.70;99.90
46890;DHT22;32625;51.080;16.970;2023-09-19T09:40:49;19.70;99.90
46890;DHT22;32625;51.080;16.970;2023-09-19T09:43:38;19.70;99.90
46890;DHT22;32625;51.080;16.970;2023-09-19T09:46:07;19.80;99.90
46890;DHT22;32625;51.080;16.970;2023-09-19T09:49:03;19.80;99.90
46890;DHT22;32625;51.080;16.970;2023-09-19T09:51:50;19.90;99.90
46890;DHT22;32625;51.080;16.970;2023-09-19T09:54:29;20.00;99.90
46890;DHT22;32625;51.080;16.970;2023-09-19T09:57:10;20.10;99.90
46890;DHT22;32625;51.080;16.970;2023-09-19T09:59:48;20.00;99.90
46890;DHT22;32625;51.080;16.970;2023-09-19T10:02:18;20.00;99.90
46890;DHT22;32625;51.080;16.970;2023-09-19T10:04:53;20.00;99.90
46890;DHT22;32625;51.080;16.970;2023-09-19T10:07:33;20.00;99.90
46890;DHT22;32625;51.080;16.970;2023-09-19T10:10:09;20.20;99.90
46890;DHT22;32625;51.080;16.970;2023-09-19T10:12:48;20.20;99.90
46890;DHT22;32625;51.080;16.970;2023-09-19T10:15:18;20.20;99.90
46890;DHT22;32625;51.080;16.970;2023-09-19T10:17:47;20.20;99.90
46890;DHT22;32625;51.080;16.970;2023-09-19T10:20:16;20.10;99.90
46890;DHT22;32625;51.080;16.970;2023-09-19T10:23:00;20.10;99.90
46890;DHT22;32625;51.080;16.970;2023-09-19T10:25:28;20.10;99.90
46890;DHT22;32625;51.080;16.970;2023-09-19T10:28:00;20.10;99.90
46890;DHT22;32625;51.080;16.970;2023-09-19T10:30:31;20.10;99.90
46890;DHT22;32625;51.080;16.970;2023-09-19T10:33:02;20.00;99.90
46890;DHT22;32625;51.080;16.970;2023-09-19T10:35:30;20.10;99.90
46890;DHT22;32625;51.080;16.970;2023-09-19T10:38:01;20.10;99.90
46890;DHT22;32625;51.080;16.970;2023-09-19T10:40:30;20.10;99.90
46890;DHT22;32625;51.080;16.970;2023-09-19T10:43:04;20.30;99.90
46890;DHT22;32625;51.080;16.970;2023-09-19T10:45:35;20.50;99.90
46890;DHT22;32625;51.080;16.970;2023-09-19T10:48:02;20.70;99.90
46890;DHT22;32625;51.080;16.970;2023-09-19T10:50:36;20.80;99.90
46890;DHT22;32625;51.080;16.970;2023-09-19T10:53:06;20.80;99.90
46890;DHT22;32625;51.080;16.970;2023-09-19T10:55:36;20.70;99.90
46890;DHT22;32625;51.080;16.970;2023-09-19T10:58:05;20.60;99.90
46890;DHT22;32625;51.080;16.970;2023-09-19T11:00:55;20.70;99.90
46890;DHT22;32625;51.080;16.970;2023-09-19T11:03:23;20.80;99.90
46890;DHT22;32625;51.080;16.970;2023-09-19T11:06:01;20.80;99.90
46890;DHT22;32625;51.080;16.970;2023-09-19T11:08:28;20.80;99.90
46890;DHT22;32625;51.080;16.970;2023-09-19T11:10:55;20.80;99.90
46890;DHT22;32625;51.080;16.970;2023-09-19T11:13:29;20.80;99.90
46890;DHT22;32625;51.080;16.970;2023-09-19T11:16:04;20.70;99.90
46890;DHT22;32625;51.080;16.970;2023-09-19T11:26:41;20.90;99.90
46890;DHT22;32625;51.080;16.970;2023-09-19T11:29:28;21.00;97.40
46890;DHT22;32625;51.080;16.970;2023-09-19T11:31:59;21.10;96.60
46890;DHT22;32625;51.080;16.970;2023-09-19T11:40:09;21.10;94.80
46890;DHT22;32625;51.080;16.970;2023-09-19T11:42:46;21.00;94.50
46890;DHT22;32625;51.080;16.970;2023-09-19T11:48:18;20.70;95.20
46890;DHT22;32625;51.080;16.970;2023-09-19T11:50:46;20.70;95.80
46890;DHT22;32625;51.080;16.970;2023-09-19T11:53:14;20.90;95.40
46890;DHT22;32625;51.080;16.970;2023-09-19T11:55:43;21.00;95.00
46890;DHT22;32625;51.080;16.970;2023-09-19T11:58:12;21.10;94.20
46890;DHT22;32625;51.080;16.970;2023-09-19T12:00:42;21.20;93.00
46890;DHT22;32625;51.080;16.970;2023-09-19T12:03:12;21.30;93.00
46890;DHT22;32625;51.080;16.970;2023-09-19T12:05:41;21.30;93.60
46890;DHT22;32625;51.080;16.970;2023-09-19T12:08:08;21.40;93.50
46890;DHT22;32625;51.080;16.970;2023-09-19T12:10:48;21.50;92.60
46890;DHT22;32625;51.080;16.970;2023-09-19T12:13:17;21.50;92.10
46890;DHT22;32625;51.080;16.970;2023-09-19T12:15:45;21.60;92.00
46890;DHT22;32625;51.080;16.970;2023-09-19T12:18:27;21.60;91.50
46890;DHT22;32625;51.080;16.970;2023-09-19T12:20:55;21.60;91.20
46890;DHT22;32625;51.080;16.970;2023-09-19T12:23:22;21.70;89.70
46890;DHT22;32625;51.080;16.970;2023-09-19T12:25:49;21.70;90.10
46890;DHT22;32625;51.080;16.970;2023-09-19T12:28:20;21.70;89.90
46890;DHT22;32625;51.080;16.970;2023-09-19T12:30:52;21.80;87.30
46890;DHT22;32625;51.080;16.970;2023-09-19T12:33:22;21.90;88.30
46890;DHT22;32625;51.080;16.970;2023-09-19T12:35:53;21.90;89.00
46890;DHT22;32625;51.080;16.970;2023-09-19T12:38:25;21.80;88.20
46890;DHT22;32625;51.080;16.970;2023-09-19T12:40:56;21.80;88.10
46890;DHT22;32625;51.080;16.970;2023-09-19T12:43:23;21.80;87.80
46890;DHT22;32625;51.080;16.970;2023-09-19T12:45:50;22.00;87.30
46890;DHT22;32625;51.080;16.970;2023-09-19T12:48:27;22.00;87.40
46890;DHT22;32625;51.080;16.970;2023-09-19T12:51:09;22.00;87.60
46890;DHT22;32625;51.080;16.970;2023-09-19T12:53:44;22.00;86.70
46890;DHT22;32625;51.080;16.970;2023-09-19T12:56:13;22.00;86.70
46890;DHT22;32625;51.080;16.970;2023-09-19T12:58:53;22.00;83.30
46890;DHT22;32625;51.080;16.970;2023-09-19T13:01:22;22.10;83.50
46890;DHT22;32625;51.080;16.970;2023-09-19T13:06:53;22.00;83.50
46890;DHT22;32625;51.080;16.970;2023-09-19T13:09:22;22.00;84.60
46890;DHT22;32625;51.080;16.970;2023-09-19T13:11:55;22.10;83.50
46890;DHT22;32625;51.080;16.970;2023-09-19T13:14:24;22.10;82.80
46890;DHT22;32625;51.080;16.970;2023-09-19T13:17:08;22.20;83.60
46890;DHT22;32625;51.080;16.970;2023-09-19T13:19:54;22.10;82.30
46890;DHT22;32625;51.080;16.970;2023-09-19T13:25:13;22.20;82.90
46890;DHT22;32625;51.080;16.970;2023-09-19T13:27:43;22.20;81.80
46890;DHT22;32625;51.080;16.970;2023-09-19T13:30:12;22.30;81.90
46890;DHT22;32625;51.080;16.970;2023-09-19T13:32:39;22.30;82.90
46890;DHT22;32625;51.080;16.970;2023-09-19T13:35:07;22.40;83.10
46890;DHT22;32625;51.080;16.970;2023-09-19T13:37:38;22.40;82.70
46890;DHT22;32625;51.080;16.970;2023-09-19T13:40:08;22.50;81.60
46890;DHT22;32625;51.080;16.970;2023-09-19T13:42:36;22.60;80.60
46890;DHT22;32625;51.080;16.970;2023-09-19T13:45:04;22.70;79.50
46890;DHT22;32625;51.080;16.970;2023-09-19T13:47:31;22.80;79.40
46890;DHT22;32625;51.080;16.970;2023-09-19T13:50:01;23.00;78.30
46890;DHT22;32625;51.080;16.970;2023-09-19T13:52:29;23.10;78.20
46890;DHT22;32625;51.080;16.970;2023-09-19T13:54:58;23.40;77.20
46890;DHT22;32625;51.080;16.970;2023-09-19T13:57:26;23.50;77.00
46890;DHT22;32625;51.080;16.970;2023-09-19T13:59:53;23.50;74.70
46890;DHT22;32625;51.080;16.970;2023-09-19T14:02:22;23.40;74.10
46890;DHT22;32625;51.080;16.970;2023-09-19T14:04:52;23.60;74.80
46890;DHT22;32625;51.080;16.970;2023-09-19T14:07:19;23.50;75.10
46890;DHT22;32625;51.080;16.970;2023-09-19T14:09:47;23.30;74.70
46890;DHT22;32625;51.080;16.970;2023-09-19T14:12:14;23.20;76.70
46890;DHT22;32625;51.080;16.970;2023-09-19T14:14:41;23.30;76.10
46890;DHT22;32625;51.080;16.970;2023-09-19T14:17:09;23.40;75.10
46890;DHT22;32625;51.080;16.970;2023-09-19T14:19:37;23.30;74.90
46890;DHT22;32625;51.080;16.970;2023-09-19T14:22:04;23.10;75.30
46890;DHT22;32625;51.080;16.970;2023-09-19T14:24:35;23.20;76.90
46890;DHT22;32625;51.080;16.970;2023-09-19T14:27:03;23.10;76.50
46890;DHT22;32625;51.080;16.970;2023-09-19T14:29:31;23.10;75.70
46890;DHT22;32625;51.080;16.970;2023-09-19T14:31:59;23.00;76.50
46890;DHT22;32625;51.080;16.970;2023-09-19T14:34:26;22.90;76.40
46890;DHT22;32625;51.080;16.970;2023-09-19T14:36:53;22.70;77.50
46890;DHT22;32625;51.080;16.970;2023-09-19T14:39:23;22.60;77.90
46890;DHT22;32625;51.080;16.970;2023-09-19T14:41:50;22.50;78.80
46890;DHT22;32625;51.080;16.970;2023-09-19T14:44:17;22.40;78.90
46890;DHT22;32625;51.080;16.970;2023-09-19T14:46:44;22.10;78.50
46890;DHT22;32625;51.080;16.970;2023-09-19T14:49:12;22.30;79.30
46890;DHT22;32625;51.080;16.970;2023-09-19T14:51:39;22.30;80.30
46890;DHT22;32625;51.080;16.970;2023-09-19T14:54:11;22.20;79.10
46890;DHT22;32625;51.080;16.970;2023-09-19T14:56:38;22.20;80.00
46890;DHT22;32625;51.080;16.970;2023-09-19T14:59:04;22.20;81.20
46890;DHT22;32625;51.080;16.970;2023-09-19T15:01:33;22.10;82.20
46890;DHT22;32625;51.080;16.970;2023-09-19T15:04:00;22.00;83.40
46890;DHT22;32625;51.080;16.970;2023-09-19T15:06:28;21.90;85.70
46890;DHT22;32625;51.080;16.970;2023-09-19T15:08:55;21.90;85.10
46890;DHT22;32625;51.080;16.970;2023-09-19T15:11:22;21.90;83.70
46890;DHT22;32625;51.080;16.970;2023-09-19T15:13:52;21.80;84.00
46890;DHT22;32625;51.080;16.970;2023-09-19T15:16:20;21.80;84.10
46890;DHT22;32625;51.080;16.970;2023-09-19T15:18:47;21.70;85.80
46890;DHT22;32625;51.080;16.970;2023-09-19T15:21:15;21.70;87.10
46890;DHT22;32625;51.080;16.970;2023-09-19T15:23:43;21.60;88.40
46890;DHT22;32625;51.080;16.970;2023-09-19T15:26:12;21.60;90.10
46890;DHT22;32625;51.080;16.970;2023-09-19T15:28:40;21.50;90.60
46890;DHT22;32625;51.080;16.970;2023-09-19T15:31:10;21.50;90.80
46890;DHT22;32625;51.080;16.970;2023-09-19T15:33:38;21.50;90.00
46890;DHT22;32625;51.080;16.970;2023-09-19T15:36:12;21.50;90.50
46890;DHT22;32625;51.080;16.970;2023-09-19T15:39:02;21.50;88.40
46890;DHT22;32625;51.080;16.970;2023-09-19T15:41:35;21.50;87.10
46890;DHT22;32625;51.080;16.970;2023-09-19T15:44:12;21.50;87.50
46890;DHT22;32625;51.080;16.970;2023-09-19T15:46:39;21.50;87.10
46890;DHT22;32625;51.080;16.970;2023-09-19T15:49:08;21.50;89.00
46890;DHT22;32625;51.080;16.970;2023-09-19T15:51:35;21.40;91.20
46890;DHT22;32625;51.080;16.970;2023-09-19T15:54:08;21.40;91.20
46890;DHT22;32625;51.080;16.970;2023-09-19T15:56:35;21.30;90.30
46890;DHT22;32625;51.080;16.970;2023-09-19T15:59:02;21.30;90.50
46890;DHT22;32625;51.080;16.970;2023-09-19T16:01:30;21.20;92.30
46890;DHT22;32625;51.080;16.970;2023-09-19T16:03:57;21.10;94.00
46890;DHT22;32625;51.080;16.970;2023-09-19T16:06:29;21.10;93.10
46890;DHT22;32625;51.080;16.970;2023-09-19T16:08:58;21.10;93.10
46890;DHT22;32625;51.080;16.970;2023-09-19T16:11:27;21.10;93.30